Port Stanley — V7EE9 — position and weather

sailwx.info

Track history (hours):
 
Tides and Currents Weather Stations Pressure Air Temp Water Temp Dewpoint Dewpoint Depression Visibility Wind Speed Wind Dir Waves Ship Positions

Port Stanley

Last reported at 2016-Feb-05 05:32 UTC. Time now 2016-Feb-08 19:00 UTC.
Position N 01°17' E 103°39'.

Length 183 m; draft 6 m.

Type: Other ship. MMSI: 538090299.

Date/timePositionNaut miles runAvg speedWind from/ knotsBaromVisibWave heightAir tempDewpointWater temp
2016-Feb-05 05:32N 01°17' E 103°39'4 4.2
2016-Feb-05 04:33N 01°15' E 103°43'6 5.9
2016-Feb-05 03:33N 01°14' E 103°48'0 0.1
2016-Feb-05 02:33N 01°14' E 103°48'0 0.0
2016-Feb-05 01:28N 01°14' E 103°48'0 0.2
2016-Feb-05 00:22N 01°14' E 103°48'0 0.0
2016-Feb-04 23:31N 01°14' E 103°48'0 0.0
2016-Feb-04 22:28N 01°14' E 103°48'0 0.1
2016-Feb-04 21:28N 01°14' E 103°48'0 0.1
2016-Feb-04 20:28N 01°14' E 103°48'0 0.1
2016-Feb-04 19:28N 01°14' E 103°48'0 0.1
2016-Feb-04 18:25N 01°14' E 103°48'0 0.0
2016-Feb-04 17:28N 01°14' E 103°48'0 0.0
2016-Feb-04 16:28N 01°14' E 103°48'0 0.0
2016-Feb-04 15:28N 01°14' E 103°48'0 0.0
2016-Feb-04 14:28N 01°14' E 103°48'0 0.1
2016-Feb-04 13:31N 01°14' E 103°48'0 0.0
2016-Feb-04 12:11N 01°14' E 103°48'0 0.0
2016-Feb-04 11:29N 01°14' E 103°48'0 0.1
2016-Feb-04 10:25N 01°14' E 103°48'0 0.2
2016-Feb-04 09:13N 01°14' E 103°48'0 0.1
2016-Feb-04 08:23N 01°14' E 103°48'0 0.2
2016-Feb-04 07:29N 01°14' E 103°48'0 0.2
2016-Feb-04 06:29N 01°14' E 103°48'0 0.1
2016-Feb-04 05:29N 01°14' E 103°48'0 0.0
2016-Feb-04 04:23N 01°14' E 103°48'0 0.1
2016-Feb-04 02:29N 01°14' E 103°48'0 0.1
2016-Feb-04 01:29N 01°14' E 103°48'0 0.2
2016-Feb-04 00:32N 01°14' E 103°48'0 0.1
2016-Feb-03 22:29N 01°14' E 103°48'0 0.0
2016-Feb-03 21:32N 01°14' E 103°48'0 0.0
2016-Feb-03 20:17N 01°14' E 103°48'0 0.0
2016-Feb-03 19:26N 01°14' E 103°48'0 0.0
2016-Feb-03 18:29N 01°14' E 103°48'0 0.1
2016-Feb-03 17:29N 01°14' E 103°48'0 0.0
2016-Feb-03 16:29N 01°14' E 103°48'0 0.1
2016-Feb-03 15:29N 01°14' E 103°48'0 0.0
2016-Feb-03 13:23N 01°14' E 103°48'0 0.1
2016-Feb-03 12:17N 01°14' E 103°48'0 0.1
2016-Feb-03 11:17N 01°14' E 103°48'0 0.0
2016-Feb-03 10:29N 01°14' E 103°48'0 0.0
2016-Feb-03 08:29N 01°14' E 103°48'0 0.0
2016-Feb-03 07:29N 01°14' E 103°48'0 0.1
2016-Feb-03 06:32N 01°14' E 103°48'0 0.1
2016-Feb-03 05:23N 01°14' E 103°48'0 0.1
2016-Feb-03 04:32N 01°14' E 103°48'0 0.1
2016-Feb-03 03:29N 01°14' E 103°48'1 1.2
2016-Feb-03 02:33N 01°13' E 103°49'9 9.1
2016-Feb-03 01:34N 01°15' E 103°58'7 7.3
2016-Feb-03 00:32N 01°16' E 104°05'  
2016-Jan-30 06:14N 01°17' E 104°14'811.0
2016-Jan-30 05:31N 01°16' E 104°06'1010.7
2016-Jan-30 04:34N 01°13' E 103°56'7 6.8
2016-Jan-30 03:33N 01°13' E 103°49'1 0.5
2016-Jan-30 02:32N 01°14' E 103°49'0 0.1
2016-Jan-30 01:26N 01°14' E 103°49'0 0.1
2016-Jan-30 00:32N 01°14' E 103°49'0 0.1
2016-Jan-29 23:32N 01°14' E 103°49'0 0.0
2016-Jan-29 22:26N 01°14' E 103°49'0 0.0
2016-Jan-29 21:32N 01°14' E 103°49'0 0.1
2016-Jan-29 20:29N 01°14' E 103°49'0 0.1
2016-Jan-29 19:32N 01°14' E 103°49'0 0.1
2016-Jan-29 18:32N 01°14' E 103°49'0 0.2
2016-Jan-29 17:32N 01°14' E 103°49'0 0.1
2016-Jan-29 16:32N 01°14' E 103°49'1 1.1
2016-Jan-29 15:33N 01°14' E 103°48'8 7.6
2016-Jan-29 14:33N 01°13' E 103°40'1 0.4
2016-Jan-29 13:14N 01°14' E 103°40'0 0.0
2016-Jan-29 12:24N 01°14' E 103°40'0 0.0
2016-Jan-29 11:32N 01°14' E 103°40'0 0.0
2016-Jan-29 10:32N 01°14' E 103°40'0 0.0
2016-Jan-29 09:30N 01°14' E 103°40'0 0.0
2016-Jan-29 08:32N 01°14' E 103°40'1 0.0
2016-Jan-28 01:21N 01°13' E 103°40'4 4.8
2016-Jan-28 00:33N 01°15' E 103°43'5 4.3
2016-Jan-27 23:24N 01°14' E 103°48'0 0.0
2016-Jan-27 22:16N 01°14' E 103°48'0 0.0
2016-Jan-27 21:30N 01°14' E 103°48'0 0.0
2016-Jan-27 20:30N 01°14' E 103°48'0 0.0
2016-Jan-27 19:30N 01°14' E 103°48'0 0.0
2016-Jan-27 18:30N 01°14' E 103°48'0 0.1
2016-Jan-27 17:24N 01°14' E 103°48'0 0.1
2016-Jan-27 16:30N 01°14' E 103°48'0 0.1
2016-Jan-27 15:30N 01°14' E 103°48'0 0.1
2016-Jan-27 14:30N 01°14' E 103°48'0 0.1
2016-Jan-27 13:30N 01°14' E 103°48'0 0.2
2016-Jan-27 12:30N 01°14' E 103°48'0 0.0
2016-Jan-27 11:28N 01°14' E 103°48'0 0.0
2016-Jan-27 10:30N 01°14' E 103°48'0 0.0
2016-Jan-27 09:30N 01°14' E 103°48'0 0.1
2016-Jan-27 08:30N 01°14' E 103°48'0 0.0
2016-Jan-27 07:28N 01°14' E 103°48'0 0.1
2016-Jan-27 06:22N 01°14' E 103°48'0 0.1
2016-Jan-27 05:30N 01°14' E 103°48'0 0.0
2016-Jan-27 04:30N 01°14' E 103°48'0 0.1
2016-Jan-27 03:30N 01°14' E 103°48'0 0.1
2016-Jan-27 02:24N 01°14' E 103°48'0 0.1
2016-Jan-27 01:30N 01°14' E 103°48'0 0.0
2016-Jan-27 00:30N 01°14' E 103°48'0 0.1
2016-Jan-26 23:30N 01°14' E 103°48'0 0.0
2016-Jan-26 22:30N 01°14' E 103°48'0 0.1
2016-Jan-26 21:30N 01°14' E 103°48'0 0.0
2016-Jan-26 20:24N 01°14' E 103°48'0 0.1
2016-Jan-26 19:30N 01°14' E 103°48'0 0.0
2016-Jan-26 18:30N 01°14' E 103°48'0 0.0
2016-Jan-26 17:30N 01°14' E 103°48'0 0.1
2016-Jan-26 16:31N 01°14' E 103°48'0 0.1
2016-Jan-26 15:19N 01°14' E 103°48'0 0.0
2016-Jan-26 14:31N 01°14' E 103°48'0 0.1
2016-Jan-26 13:25N 01°14' E 103°48'0 0.1
2016-Jan-26 12:31N 01°14' E 103°48'0 0.0
2016-Jan-26 10:31N 01°14' E 103°48'0 0.0
2016-Jan-26 07:25N 01°14' E 103°48'0 0.0
2016-Jan-26 06:25N 01°14' E 103°48'  
Track history (hours):
 
Tides and Currents Weather Stations Pressure Air Temp Water Temp Dewpoint Dewpoint Depression Visibility Wind Speed Wind Dir Waves Ship Positions

Port Stanley

Last reported at 2016-Feb-05 05:32 UTC. Time now 2016-Feb-08 19:00 UTC.
Position N 01°17' E 103°39'.

Length 183 m; draft 6 m.

Type: Other ship. MMSI: 538090299.

Date/timePositionNaut miles runAvg speedWind from/ knotsBaromVisibWave heightAir tempDewpointWater temp
2016-Feb-05 05:32N 01°17' E 103°39'4 4.2
2016-Feb-05 04:33N 01°15' E 103°43'6 5.9
2016-Feb-05 03:33N 01°14' E 103°48'0 0.1
2016-Feb-05 02:33N 01°14' E 103°48'0 0.0
2016-Feb-05 01:28N 01°14' E 103°48'0 0.2
2016-Feb-05 00:22N 01°14' E 103°48'0 0.0
2016-Feb-04 23:31N 01°14' E 103°48'0 0.0
2016-Feb-04 22:28N 01°14' E 103°48'0 0.1
2016-Feb-04 21:28N 01°14' E 103°48'0 0.1
2016-Feb-04 20:28N 01°14' E 103°48'0 0.1
2016-Feb-04 19:28N 01°14' E 103°48'0 0.1
2016-Feb-04 18:25N 01°14' E 103°48'0 0.0
2016-Feb-04 17:28N 01°14' E 103°48'0 0.0
2016-Feb-04 16:28N 01°14' E 103°48'0 0.0
2016-Feb-04 15:28N 01°14' E 103°48'0 0.0
2016-Feb-04 14:28N 01°14' E 103°48'0 0.1
2016-Feb-04 13:31N 01°14' E 103°48'0 0.0
2016-Feb-04 12:11N 01°14' E 103°48'0 0.0
2016-Feb-04 11:29N 01°14' E 103°48'0 0.1
2016-Feb-04 10:25N 01°14' E 103°48'0 0.2
2016-Feb-04 09:13N 01°14' E 103°48'0 0.1
2016-Feb-04 08:23N 01°14' E 103°48'0 0.2
2016-Feb-04 07:29N 01°14' E 103°48'0 0.2
2016-Feb-04 06:29N 01°14' E 103°48'0 0.1
2016-Feb-04 05:29N 01°14' E 103°48'0 0.0
2016-Feb-04 04:23N 01°14' E 103°48'0 0.1
2016-Feb-04 02:29N 01°14' E 103°48'0 0.1
2016-Feb-04 01:29N 01°14' E 103°48'0 0.2
2016-Feb-04 00:32N 01°14' E 103°48'0 0.1
2016-Feb-03 22:29N 01°14' E 103°48'0 0.0
2016-Feb-03 21:32N 01°14' E 103°48'0 0.0
2016-Feb-03 20:17N 01°14' E 103°48'0 0.0
2016-Feb-03 19:26N 01°14' E 103°48'0 0.0
2016-Feb-03 18:29N 01°14' E 103°48'0 0.1
2016-Feb-03 17:29N 01°14' E 103°48'0 0.0
2016-Feb-03 16:29N 01°14' E 103°48'0 0.1
2016-Feb-03 15:29N 01°14' E 103°48'0 0.0
2016-Feb-03 13:23N 01°14' E 103°48'0 0.1
2016-Feb-03 12:17N 01°14' E 103°48'0 0.1
2016-Feb-03 11:17N 01°14' E 103°48'0 0.0
2016-Feb-03 10:29N 01°14' E 103°48'0 0.0
2016-Feb-03 08:29N 01°14' E 103°48'0 0.0
2016-Feb-03 07:29N 01°14' E 103°48'0 0.1
2016-Feb-03 06:32N 01°14' E 103°48'0 0.1
2016-Feb-03 05:23N 01°14' E 103°48'0 0.1
2016-Feb-03 04:32N 01°14' E 103°48'0 0.1
2016-Feb-03 03:29N 01°14' E 103°48'1 1.2
2016-Feb-03 02:33N 01°13' E 103°49'9 9.1
2016-Feb-03 01:34N 01°15' E 103°58'7 7.3
2016-Feb-03 00:32N 01°16' E 104°05'  
2016-Jan-30 06:14N 01°17' E 104°14'811.0
2016-Jan-30 05:31N 01°16' E 104°06'1010.7
2016-Jan-30 04:34N 01°13' E 103°56'7 6.8
2016-Jan-30 03:33N 01°13' E 103°49'1 0.5
2016-Jan-30 02:32N 01°14' E 103°49'0 0.1
2016-Jan-30 01:26N 01°14' E 103°49'0 0.1
2016-Jan-30 00:32N 01°14' E 103°49'0 0.1
2016-Jan-29 23:32N 01°14' E 103°49'0 0.0
2016-Jan-29 22:26N 01°14' E 103°49'0 0.0
2016-Jan-29 21:32N 01°14' E 103°49'0 0.1
2016-Jan-29 20:29N 01°14' E 103°49'0 0.1
2016-Jan-29 19:32N 01°14' E 103°49'0 0.1
2016-Jan-29 18:32N 01°14' E 103°49'0 0.2
2016-Jan-29 17:32N 01°14' E 103°49'0 0.1
2016-Jan-29 16:32N 01°14' E 103°49'1 1.1
2016-Jan-29 15:33N 01°14' E 103°48'8 7.6
2016-Jan-29 14:33N 01°13' E 103°40'1 0.4
2016-Jan-29 13:14N 01°14' E 103°40'0 0.0
2016-Jan-29 12:24N 01°14' E 103°40'0 0.0
2016-Jan-29 11:32N 01°14' E 103°40'0 0.0
2016-Jan-29 10:32N 01°14' E 103°40'0 0.0
2016-Jan-29 09:30N 01°14' E 103°40'0 0.0
2016-Jan-29 08:32N 01°14' E 103°40'1 0.0
2016-Jan-28 01:21N 01°13' E 103°40'4 4.8
2016-Jan-28 00:33N 01°15' E 103°43'5 4.3
2016-Jan-27 23:24N 01°14' E 103°48'0 0.0
2016-Jan-27 22:16N 01°14' E 103°48'0 0.0
2016-Jan-27 21:30N 01°14' E 103°48'0 0.0
2016-Jan-27 20:30N 01°14' E 103°48'0 0.0
2016-Jan-27 19:30N 01°14' E 103°48'0 0.0
2016-Jan-27 18:30N 01°14' E 103°48'0 0.1
2016-Jan-27 17:24N 01°14' E 103°48'0 0.1
2016-Jan-27 16:30N 01°14' E 103°48'0 0.1
2016-Jan-27 15:30N 01°14' E 103°48'0 0.1
2016-Jan-27 14:30N 01°14' E 103°48'0 0.1
2016-Jan-27 13:30N 01°14' E 103°48'0 0.2
2016-Jan-27 12:30N 01°14' E 103°48'0 0.0
2016-Jan-27 11:28N 01°14' E 103°48'0 0.0
2016-Jan-27 10:30N 01°14' E 103°48'0 0.0
2016-Jan-27 09:30N 01°14' E 103°48'0 0.1
2016-Jan-27 08:30N 01°14' E 103°48'0 0.0
2016-Jan-27 07:28N 01°14' E 103°48'0 0.1
2016-Jan-27 06:22N 01°14' E 103°48'0 0.1
2016-Jan-27 05:30N 01°14' E 103°48'0 0.0
2016-Jan-27 04:30N 01°14' E 103°48'0 0.1
2016-Jan-27 03:30N 01°14' E 103°48'0 0.1
2016-Jan-27 02:24N 01°14' E 103°48'0 0.1
2016-Jan-27 01:30N 01°14' E 103°48'0 0.0
2016-Jan-27 00:30N 01°14' E 103°48'0 0.1
2016-Jan-26 23:30N 01°14' E 103°48'0 0.0
2016-Jan-26 22:30N 01°14' E 103°48'0 0.1
2016-Jan-26 21:30N 01°14' E 103°48'0 0.0
2016-Jan-26 20:24N 01°14' E 103°48'0 0.1
2016-Jan-26 19:30N 01°14' E 103°48'0 0.0
2016-Jan-26 18:30N 01°14' E 103°48'0 0.0
2016-Jan-26 17:30N 01°14' E 103°48'0 0.1
2016-Jan-26 16:31N 01°14' E 103°48'0 0.1
2016-Jan-26 15:19N 01°14' E 103°48'0 0.0
2016-Jan-26 14:31N 01°14' E 103°48'0 0.1
2016-Jan-26 13:25N 01°14' E 103°48'0 0.1
2016-Jan-26 12:31N 01°14' E 103°48'0 0.0
2016-Jan-26 10:31N 01°14' E 103°48'0 0.0
2016-Jan-26 07:25N 01°14' E 103°48'0 0.0
2016-Jan-26 06:25N 01°14' E 103°48'  

Dump ship's entire track history